createdAt,value
2024-02-20T00:01:06.013Z,95.90
2024-02-20T00:03:50.559Z,91.41
2024-02-20T00:06:25.461Z,95.58
2024-02-20T00:09:01.485Z,95.43
2024-02-20T00:11:33.601Z,96.77
2024-02-20T00:14:06.072Z,97.05
2024-02-20T00:16:38.323Z,97.40
2024-02-20T00:19:10.913Z,97.80
2024-02-20T00:21:48.324Z,99.39
2024-02-20T00:24:20.841Z,96.78
2024-02-20T00:27:00.196Z,98.86
2024-02-20T00:29:33.102Z,98.79
2024-02-20T00:32:06.224Z,94.65
2024-02-20T00:34:39.188Z,97.11
2024-02-20T00:37:14.669Z,96.29
2024-02-20T00:39:47.541Z,96.88
2024-02-20T00:42:25.623Z,96.71
2024-02-20T00:45:03.064Z,94.49
2024-02-20T00:47:36.142Z,97.13
2024-02-20T00:50:12.542Z,96.04
2024-02-20T00:52:47.624Z,95.65
2024-02-20T00:55:20.682Z,95.71
2024-02-20T00:57:59.900Z,94.28
2024-02-20T01:00:35.571Z,98.08
2024-02-20T01:03:16.194Z,98.75
2024-02-20T01:05:52.462Z,98.72
2024-02-20T01:08:36.361Z,96.81
2024-02-20T01:11:09.423Z,96.98
2024-02-20T01:13:45.335Z,95.92
2024-02-20T01:16:19.661Z,95.06
2024-02-20T01:18:59.091Z,97.48
2024-02-20T01:21:32.530Z,97.75
2024-02-20T01:24:07.890Z,96.84
2024-02-20T01:26:41.836Z,96.45
2024-02-20T01:29:23.828Z,95.72
2024-02-20T01:31:56.183Z,96.19
2024-02-20T01:34:28.636Z,95.50
2024-02-20T01:37:04.893Z,96.26
2024-02-20T01:39:40.110Z,95.10
2024-02-20T01:42:13.882Z,95.83
2024-02-20T01:44:46.213Z,94.98
2024-02-20T01:47:18.508Z,95.98
2024-02-20T01:49:52.372Z,95.00
2024-02-20T01:52:25.095Z,93.20
2024-02-20T01:55:03.803Z,95.85
2024-02-20T01:57:41.734Z,97.30
2024-02-20T02:00:15.019Z,93.69
2024-02-20T02:02:50.516Z,95.20
2024-02-20T02:05:23.782Z,96.78
2024-02-20T02:07:56.019Z,95.91
2024-02-20T02:10:37.580Z,92.85
2024-02-20T02:13:09.743Z,95.88
2024-02-20T02:15:44.495Z,92.61
2024-02-20T02:18:16.788Z,93.51
2024-02-20T02:20:51.093Z,93.67
2024-02-20T02:23:23.156Z,94.45
2024-02-20T02:25:58.218Z,94.96
2024-02-20T02:28:36.037Z,96.51
2024-02-20T02:31:27.546Z,96.26
2024-02-20T02:34:15.008Z,94.59
2024-02-20T02:36:47.764Z,92.88
2024-02-20T02:39:22.096Z,95.17
2024-02-20T02:41:54.590Z,94.37
2024-02-20T02:44:29.410Z,92.42
2024-02-20T02:47:05.221Z,92.07
2024-02-20T02:49:37.538Z,91.29
2024-02-20T02:52:12.351Z,93.62
2024-02-20T02:54:44.466Z,93.05
2024-02-20T02:57:17.297Z,94.27
2024-02-20T02:59:54.928Z,92.92
2024-02-20T03:02:27.782Z,93.16
2024-02-20T03:05:01.492Z,92.60
2024-02-20T03:07:34.118Z,91.66
2024-02-20T03:10:06.514Z,94.39
2024-02-20T03:12:39.196Z,95.91
2024-02-20T03:15:16.571Z,94.52
2024-02-20T03:17:51.053Z,95.29
2024-02-20T03:20:23.638Z,93.45
2024-02-20T03:22:57.795Z,94.80
2024-02-20T03:25:32.939Z,94.42
2024-02-20T03:28:08.667Z,94.21
2024-02-20T03:30:43.694Z,96.01
2024-02-20T03:33:16.609Z,94.67
2024-02-20T03:35:50.294Z,93.60
2024-02-20T03:38:26.101Z,95.43
2024-02-20T03:40:58.775Z,95.79
2024-02-20T03:43:31.663Z,94.18
2024-02-20T03:46:10.785Z,96.18
2024-02-20T03:48:43.802Z,93.94
2024-02-20T03:51:16.316Z,94.90
2024-02-20T03:53:49.170Z,91.55
2024-02-20T03:56:21.408Z,92.89
2024-02-20T03:58:54.552Z,91.03
2024-02-20T04:01:29.670Z,92.83
2024-02-20T04:04:02.619Z,89.75
2024-02-20T04:06:40.336Z,90.37
2024-02-20T04:09:13.200Z,88.36
2024-02-20T04:11:54.854Z,89.04
2024-02-20T04:14:27.451Z,88.39
2024-02-20T04:17:03.667Z,90.74
2024-02-20T04:19:39.242Z,84.51
2024-02-20T04:22:28.716Z,88.63
2024-02-20T04:25:01.777Z,88.98
2024-02-20T04:27:34.215Z,86.24
2024-02-20T04:30:13.294Z,86.44
2024-02-20T04:32:52.163Z,88.04
2024-02-20T04:35:24.943Z,87.16
2024-02-20T04:37:57.698Z,87.07
2024-02-20T04:40:38.200Z,87.89
2024-02-20T04:43:10.665Z,91.67
2024-02-20T04:45:48.560Z,91.75
2024-02-20T04:48:23.653Z,92.28
2024-02-20T04:50:59.192Z,93.28
2024-02-20T04:53:31.741Z,92.64
2024-02-20T04:56:04.495Z,95.58
2024-02-20T04:58:36.919Z,95.44
2024-02-20T05:01:10.433Z,94.56
2024-02-20T05:03:56.695Z,98.08
2024-02-20T05:06:36.983Z,98.22
2024-02-20T05:09:13.611Z,97.71
2024-02-20T05:11:47.275Z,97.59
2024-02-20T05:14:19.474Z,94.58
2024-02-20T05:17:00.590Z,96.54
2024-02-20T05:19:44.089Z,93.04
2024-02-20T05:22:39.432Z,91.40
2024-02-20T05:25:13.078Z,90.88
2024-02-20T05:27:48.340Z,92.25
2024-02-20T05:30:23.092Z,88.37
2024-02-20T05:32:55.633Z,91.48
2024-02-20T05:35:30.951Z,90.89
2024-02-20T05:38:07.352Z,87.92
2024-02-20T05:40:40.576Z,88.01
2024-02-20T05:43:23.192Z,90.48
2024-02-20T05:46:00.833Z,91.90
2024-02-20T05:48:33.347Z,93.71
2024-02-20T05:51:09.832Z,90.61
2024-02-20T05:53:42.312Z,90.15
2024-02-20T05:56:14.250Z,88.43
2024-02-20T05:58:46.662Z,92.15
2024-02-20T06:01:19.591Z,88.19
2024-02-20T06:03:52.242Z,90.39
2024-02-20T06:06:27.243Z,89.44
2024-02-20T06:08:59.836Z,88.29
2024-02-20T06:11:34.128Z,87.70
2024-02-20T06:14:08.126Z,92.74
2024-02-20T06:16:40.598Z,93.11
2024-02-20T06:19:13.209Z,88.27
2024-02-20T06:21:47.930Z,91.26
2024-02-20T06:24:24.116Z,94.29
2024-02-20T06:26:56.176Z,96.01
2024-02-20T06:29:29.294Z,96.43
2024-02-20T06:32:22.092Z,89.16
2024-02-20T06:34:54.599Z,92.80
2024-02-20T06:37:29.474Z,96.83
2024-02-20T06:40:02.183Z,99.62
2024-02-20T06:42:39.912Z,95.86
2024-02-20T06:45:13.330Z,100.00
2024-02-20T06:47:57.971Z,100.00
2024-02-20T06:50:33.290Z,100.00
2024-02-20T06:53:15.241Z,100.00
2024-02-20T06:55:47.647Z,98.63
2024-02-20T06:58:19.380Z,95.92
2024-02-20T07:00:51.906Z,98.91
2024-02-20T07:03:24.810Z,98.72
2024-02-20T07:09:22.167Z,97.36
2024-02-20T07:11:56.346Z,96.83
2024-02-20T07:14:41.354Z,99.31
2024-02-20T07:17:44.566Z,98.12
2024-02-20T07:20:50.969Z,98.75
2024-02-20T07:23:24.263Z,93.89
2024-02-20T07:25:59.561Z,94.83
2024-02-20T07:28:40.720Z,94.80
2024-02-20T07:31:16.262Z,94.79
2024-02-20T07:33:57.430Z,93.34
2024-02-20T07:36:36.868Z,97.83
2024-02-20T07:39:10.242Z,94.20
2024-02-20T07:41:45.664Z,94.27
2024-02-20T07:44:18.663Z,97.03
2024-02-20T07:46:51.625Z,96.12
2024-02-20T07:50:12.334Z,92.74
2024-02-20T07:58:13.696Z,93.89
2024-02-20T08:01:37.116Z,91.51
2024-02-20T08:04:26.476Z,93.21
2024-02-20T08:06:59.465Z,90.22
2024-02-20T08:10:01.060Z,87.73
2024-02-20T08:16:22.701Z,90.10
2024-02-20T08:19:37.108Z,88.95
2024-02-20T08:25:25.472Z,91.16
2024-02-20T08:28:03.270Z,90.76
2024-02-20T08:31:06.005Z,90.25
2024-02-20T08:33:55.015Z,87.06
2024-02-20T08:36:43.282Z,88.58
2024-02-20T08:39:15.992Z,84.61
2024-02-20T08:41:48.167Z,86.74
2024-02-20T08:44:39.950Z,90.49
2024-02-20T08:47:12.118Z,89.35
2024-02-20T08:49:44.832Z,89.88
2024-02-20T08:52:35.063Z,94.35
2024-02-20T08:55:31.509Z,96.34
2024-02-20T08:58:05.427Z,96.97
2024-02-20T09:00:41.057Z,97.09
2024-02-20T09:03:21.715Z,95.51
2024-02-20T09:05:54.805Z,90.43
2024-02-20T09:08:27.085Z,91.59
2024-02-20T09:11:29.891Z,90.18
2024-02-20T09:14:02.808Z,84.45
2024-02-20T09:16:38.060Z,91.66
2024-02-20T09:19:13.188Z,90.97
2024-02-20T09:21:45.680Z,90.09
2024-02-20T09:24:17.916Z,92.89
2024-02-20T09:26:50.550Z,90.79
2024-02-20T09:29:26.991Z,85.58
2024-02-20T09:32:23.769Z,83.88
2024-02-20T09:35:21.384Z,81.36
2024-02-20T09:37:59.113Z,86.80
2024-02-20T09:40:31.734Z,84.53
2024-02-20T09:43:05.752Z,84.31
2024-02-20T09:46:10.160Z,85.64
2024-02-20T09:50:03.439Z,83.89
2024-02-20T09:56:29.911Z,80.33
2024-02-20T09:59:12.362Z,78.91
2024-02-20T10:05:20.398Z,77.39
2024-02-20T10:11:45.485Z,75.68
2024-02-20T10:14:45.436Z,76.32
2024-02-20T10:18:11.486Z,72.89
2024-02-20T10:21:50.432Z,71.92
2024-02-20T10:26:16.489Z,68.59
2024-02-20T10:29:47.359Z,71.10
2024-02-20T10:48:12.839Z,68.06
2024-02-20T10:52:02.782Z,69.64
2024-02-20T10:55:35.387Z,67.07
2024-02-20T11:03:27.074Z,66.59
2024-02-20T11:07:02.802Z,63.17
2024-02-20T11:10:44.409Z,64.34
2024-02-20T11:14:30.957Z,69.51
2024-02-20T11:17:41.477Z,63.84
2024-02-20T11:21:10.324Z,68.35
2024-02-20T11:24:17.878Z,68.62
2024-02-20T11:27:28.552Z,71.35
2024-02-20T11:30:57.390Z,67.58
2024-02-20T11:33:54.645Z,62.89
2024-02-20T11:37:54.372Z,70.56
2024-02-20T11:47:33.289Z,69.84
2024-02-20T11:58:05.143Z,69.60
2024-02-20T12:01:20.973Z,70.84
2024-02-20T12:05:09.400Z,70.98
2024-02-20T12:12:50.087Z,70.31
2024-02-20T12:22:51.585Z,67.87
2024-02-20T12:29:40.749Z,73.70
2024-02-20T12:33:24.122Z,75.57
2024-02-20T12:45:29.602Z,71.54
2024-02-20T12:49:24.647Z,70.85
2024-02-20T12:52:29.777Z,67.12
2024-02-20T12:55:49.422Z,69.45
2024-02-20T12:59:19.468Z,69.95
2024-02-20T13:10:12.941Z,69.88
2024-02-20T13:20:40.205Z,69.27
2024-02-20T13:24:11.792Z,71.40
2024-02-20T13:27:16.606Z,70.93
2024-02-20T13:31:01.350Z,69.92
2024-02-20T13:38:18.394Z,67.22
2024-02-20T13:41:33.506Z,69.98
2024-02-20T13:44:52.595Z,70.83
2024-02-20T13:48:27.468Z,66.53
2024-02-20T13:52:04.561Z,70.59
2024-02-20T13:55:58.290Z,71.30
2024-02-20T13:59:37.274Z,71.95
2024-02-20T14:03:03.029Z,71.89
2024-02-20T14:06:16.006Z,73.13
2024-02-20T14:09:54.033Z,72.13
2024-02-20T14:13:12.478Z,69.60
2024-02-20T14:29:54.040Z,71.74
2024-02-20T14:33:55.474Z,71.34
2024-02-20T14:40:36.194Z,71.71
2024-02-20T14:44:25.886Z,71.16
2024-02-20T14:48:37.952Z,71.44
2024-02-20T14:52:33.459Z,71.01
2024-02-20T14:57:10.643Z,71.29
2024-02-20T15:01:11.863Z,69.31
2024-02-20T15:09:12.389Z,69.13
2024-02-20T15:13:16.862Z,68.11
2024-02-20T15:19:54.268Z,70.49
2024-02-20T15:30:41.236Z,70.77
2024-02-20T15:33:51.807Z,70.09
2024-02-20T15:37:39.012Z,70.20
2024-02-20T15:47:06.555Z,69.40
2024-02-20T15:49:58.645Z,69.48
2024-02-20T15:52:33.381Z,69.16
2024-02-20T15:55:07.072Z,71.78
2024-02-20T15:57:44.475Z,65.50
2024-02-20T16:00:22.828Z,69.88
2024-02-20T16:02:55.085Z,69.83
2024-02-20T16:05:27.816Z,70.36
2024-02-20T16:08:01.367Z,67.77
2024-02-20T16:10:47.116Z,70.48
2024-02-20T16:13:49.992Z,71.43
2024-02-20T16:23:27.038Z,69.48
2024-02-20T16:27:45.868Z,68.49
2024-02-20T16:31:12.702Z,71.14
2024-02-20T16:34:25.734Z,70.63
2024-02-20T16:37:21.662Z,69.41
2024-02-20T16:40:06.883Z,72.15
2024-02-20T16:43:13.885Z,68.90
2024-02-20T16:46:17.552Z,65.91
2024-02-20T16:49:13.208Z,66.17
2024-02-20T16:52:33.719Z,68.50
2024-02-20T16:55:45.525Z,68.70
2024-02-20T17:02:28.560Z,69.84
2024-02-20T17:05:45.682Z,69.22
2024-02-20T17:09:10.024Z,66.82
2024-02-20T17:12:34.233Z,67.64
2024-02-20T17:18:17.815Z,68.04
2024-02-20T17:21:22.308Z,68.83
2024-02-20T17:25:02.349Z,67.68
2024-02-20T17:28:18.954Z,66.71
2024-02-20T17:31:50.530Z,64.50
2024-02-20T17:34:46.069Z,65.40
2024-02-20T17:37:58.538Z,62.72
2024-02-20T17:45:08.836Z,65.34
2024-02-20T17:48:09.273Z,66.75
2024-02-20T17:51:09.847Z,65.87
2024-02-20T17:54:27.412Z,65.24
2024-02-20T18:01:19.059Z,65.92
2024-02-20T18:04:13.670Z,68.99
2024-02-20T18:12:02.805Z,67.41
2024-02-20T18:19:36.177Z,68.13
2024-02-20T18:22:56.980Z,68.78
2024-02-20T18:30:24.045Z,67.97
2024-02-20T18:33:52.473Z,65.17
2024-02-20T18:37:44.444Z,65.67
2024-02-20T18:44:39.559Z,67.73
2024-02-20T18:48:16.150Z,64.91
2024-02-20T18:52:21.520Z,68.26
2024-02-20T18:55:30.963Z,64.96
2024-02-20T18:58:40.672Z,70.80
2024-02-20T19:05:07.870Z,67.82
2024-02-20T19:08:04.757Z,69.38
2024-02-20T19:11:12.035Z,70.20
2024-02-20T19:14:07.675Z,71.59
2024-02-20T19:17:41.148Z,70.13
2024-02-20T19:21:04.524Z,69.23
2024-02-20T19:24:31.678Z,72.01
2024-02-20T19:28:32.539Z,73.42
2024-02-20T19:32:04.343Z,69.84
2024-02-20T19:46:01.485Z,67.82
2024-02-20T19:50:03.441Z,67.77
2024-02-20T19:57:24.144Z,70.08
2024-02-20T20:00:33.207Z,67.24
2024-02-20T20:03:28.558Z,68.10
2024-02-20T20:06:21.722Z,68.32
2024-02-20T20:09:30.118Z,67.55
2024-02-20T20:12:55.863Z,67.96
2024-02-20T20:15:53.703Z,68.40
2024-02-20T20:19:13.883Z,71.51
2024-02-20T20:22:20.021Z,72.31
2024-02-20T20:25:28.235Z,71.82
2024-02-20T20:32:39.179Z,70.12
2024-02-20T20:35:47.442Z,70.70
2024-02-20T20:38:38.698Z,71.05
2024-02-20T20:48:18.950Z,72.80
2024-02-20T20:51:32.897Z,70.19
2024-02-20T20:55:10.977Z,71.00
2024-02-20T20:57:46.430Z,70.95
2024-02-20T21:00:41.016Z,72.02
2024-02-20T21:03:19.265Z,69.73
2024-02-20T21:06:01.959Z,71.65
2024-02-20T21:09:04.133Z,71.33
2024-02-20T21:11:45.054Z,69.47
2024-02-20T21:15:36.809Z,68.47
2024-02-20T21:18:51.893Z,68.99
2024-02-20T21:21:48.191Z,67.07
2024-02-20T21:24:27.206Z,68.31
2024-02-20T21:26:59.271Z,68.80
2024-02-20T21:29:44.038Z,71.37
2024-02-20T21:32:28.069Z,69.44
2024-02-20T21:35:31.583Z,69.91
2024-02-20T21:38:42.223Z,67.71
2024-02-20T21:41:14.670Z,68.25
2024-02-20T21:43:58.182Z,67.91
2024-02-20T21:46:31.346Z,68.92
2024-02-20T21:49:03.667Z,68.31
2024-02-20T21:51:38.792Z,68.05
2024-02-20T21:54:11.008Z,67.41
2024-02-20T21:56:46.203Z,68.30
2024-02-20T21:59:20.523Z,69.69
2024-02-20T22:01:52.684Z,67.52
2024-02-20T22:04:24.532Z,67.38
2024-02-20T22:07:24.508Z,69.92
2024-02-20T22:09:56.366Z,69.26
2024-02-20T22:12:30.663Z,68.72
2024-02-20T22:15:06.311Z,69.15
2024-02-20T22:17:41.078Z,66.86
2024-02-20T22:20:19.461Z,66.66
2024-02-20T22:23:00.498Z,66.83
2024-02-20T22:25:38.039Z,66.65
2024-02-20T22:28:28.938Z,68.36
2024-02-20T22:31:31.079Z,66.49
2024-02-20T22:34:05.222Z,68.75
2024-02-20T22:36:55.134Z,72.47
2024-02-20T22:39:34.137Z,69.57
2024-02-20T22:42:05.937Z,70.54
2024-02-20T22:44:43.711Z,68.33
2024-02-20T22:47:21.309Z,68.78
2024-02-20T22:49:53.678Z,67.70
2024-02-20T22:52:25.421Z,67.66
2024-02-20T22:55:02.924Z,69.18
2024-02-20T22:57:37.900Z,70.08
2024-02-20T23:00:13.772Z,69.30
2024-02-20T23:02:45.612Z,70.43
2024-02-20T23:05:19.896Z,67.92
2024-02-20T23:07:51.788Z,69.60
2024-02-20T23:10:27.269Z,67.89
2024-02-20T23:13:00.234Z,68.29
2024-02-20T23:15:33.420Z,68.29
2024-02-20T23:18:05.590Z,67.59
2024-02-20T23:20:38.450Z,67.66
2024-02-20T23:23:14.765Z,67.33
2024-02-20T23:25:51.627Z,67.95
2024-02-20T23:28:32.302Z,67.79
2024-02-20T23:31:11.984Z,66.62
2024-02-20T23:33:43.850Z,67.28
2024-02-20T23:36:15.856Z,67.05
2024-02-20T23:38:50.125Z,67.14
2024-02-20T23:41:24.934Z,68.46
2024-02-20T23:43:56.580Z,68.63
2024-02-20T23:46:28.686Z,67.03
2024-02-20T23:49:00.377Z,66.07
2024-02-20T23:51:32.327Z,67.35
2024-02-20T23:54:04.068Z,68.43
2024-02-20T23:56:41.136Z,69.69
2024-02-20T23:59:13.681Z,69.04
